createdAt,value
2019-03-13T00:04:44.291Z,21.48
2019-03-13T00:09:48.828Z,21.47
2019-03-13T00:14:53.246Z,21.44
2019-03-13T00:19:57.825Z,21.45
2019-03-13T00:25:02.404Z,21.40
2019-03-13T00:30:07.036Z,21.40
2019-03-13T00:35:11.580Z,21.43
2019-03-13T00:40:16.161Z,21.45
2019-03-13T00:45:20.716Z,21.42
2019-03-13T00:50:31.924Z,21.41
2019-03-13T00:55:36.148Z,21.41
2019-03-13T01:01:02.248Z,21.43
2019-03-13T01:06:09.035Z,21.38
2019-03-13T01:11:13.301Z,21.36
2019-03-13T01:16:17.518Z,21.36
2019-03-13T01:21:21.630Z,21.28
2019-03-13T01:26:25.755Z,21.24
2019-03-13T01:31:36.953Z,21.17
2019-03-13T01:36:41.224Z,21.09
2019-03-13T01:41:45.374Z,21.09
2019-03-13T01:46:49.535Z,21.11
2019-03-13T01:51:53.829Z,21.04
2019-03-13T01:56:58.006Z,21.04
2019-03-13T02:02:02.054Z,21.02
2019-03-13T02:07:06.352Z,21.00
2019-03-13T02:12:10.561Z,21.00
2019-03-13T02:17:14.625Z,20.98
2019-03-13T02:22:18.696Z,20.95
2019-03-13T02:27:22.965Z,20.92
2019-03-13T02:32:27.082Z,20.89
2019-03-13T02:37:31.308Z,20.89
2019-03-13T02:42:35.466Z,20.86
2019-03-13T02:47:39.727Z,20.86
2019-03-13T02:52:44.032Z,20.83
2019-03-13T02:57:48.265Z,20.83
2019-03-13T03:02:55.248Z,20.79
2019-03-13T03:07:59.566Z,20.75
2019-03-13T03:13:03.879Z,20.72
2019-03-13T03:18:08.337Z,20.68
2019-03-13T03:23:12.827Z,20.68
2019-03-13T03:28:17.140Z,20.65
2019-03-13T03:33:21.381Z,20.60
2019-03-13T03:38:25.520Z,20.59
2019-03-13T03:43:40.341Z,20.57
2019-03-13T03:48:36.276Z,20.52
2019-03-13T03:53:40.598Z,20.49
2019-03-13T03:58:44.855Z,20.49
2019-03-13T04:03:50.141Z,20.40
2019-03-13T04:08:54.330Z,20.40
2019-03-13T04:13:58.449Z,20.35
2019-03-13T04:19:02.693Z,20.30
2019-03-13T04:24:06.915Z,20.22
2019-03-13T04:29:11.156Z,20.23
2019-03-13T04:34:15.417Z,20.30
2019-03-13T04:39:19.505Z,20.29
2019-03-13T04:44:23.652Z,20.30
2019-03-13T04:49:28.122Z,20.28
2019-03-13T04:54:32.232Z,20.26
2019-03-13T04:59:36.458Z,20.20
2019-03-13T05:04:40.766Z,20.21
2019-03-13T05:09:45.324Z,20.19
2019-03-13T05:14:49.358Z,20.17
2019-03-13T05:19:53.380Z,20.17
2019-03-13T05:24:57.399Z,20.19
2019-03-13T05:30:01.441Z,20.19
2019-03-13T05:35:06.124Z,20.19
2019-03-13T05:40:10.260Z,20.13
2019-03-13T05:45:14.470Z,20.13
2019-03-13T05:50:18.648Z,20.10
2019-03-13T05:55:22.670Z,20.09
2019-03-13T06:00:28.450Z,20.10
2019-03-13T06:05:32.568Z,20.10
2019-03-13T06:10:36.662Z,20.07
2019-03-13T06:15:40.680Z,19.98
2019-03-13T06:20:44.695Z,20.04
2019-03-13T06:25:48.802Z,20.06
2019-03-13T06:30:52.891Z,20.06
2019-03-13T06:35:57.037Z,20.05
2019-03-13T06:41:01.135Z,20.06
2019-03-13T06:46:05.213Z,20.04
2019-03-13T06:51:09.244Z,20.04
2019-03-13T06:56:13.347Z,20.08
2019-03-13T07:01:40.125Z,20.08
2019-03-13T07:07:09.154Z,20.08
2019-03-13T07:12:21.054Z,19.99
2019-03-13T07:17:42.759Z,20.08
2019-03-13T07:23:15.182Z,20.05
2019-03-13T07:28:32.726Z,20.09
2019-03-13T07:33:51.681Z,20.03
2019-03-13T07:39:25.802Z,20.03
2019-03-13T07:44:48.810Z,20.11
2019-03-13T07:50:17.794Z,20.12
2019-03-13T07:55:50.154Z,20.13
2019-03-13T08:01:13.237Z,20.04
2019-03-13T08:06:39.155Z,20.04
2019-03-13T08:12:02.282Z,20.12
2019-03-13T08:17:25.454Z,20.54
2019-03-13T08:22:48.600Z,20.56
2019-03-13T08:28:17.846Z,18.18
2019-03-13T08:33:57.470Z,17.49
2019-03-13T08:39:12.991Z,16.94
2019-03-13T08:44:26.329Z,16.74
2019-03-13T08:49:52.902Z,16.68
2019-03-13T08:55:04.307Z,16.58
2019-03-13T09:00:41.385Z,18.04
2019-03-13T09:05:56.023Z,19.70
2019-03-13T09:11:37.474Z,20.48
2019-03-13T09:16:55.823Z,20.81
2019-03-13T09:22:31.013Z,20.98
2019-03-13T09:27:51.133Z,20.97
2019-03-13T09:33:20.536Z,21.01
2019-03-13T09:38:49.898Z,20.83
2019-03-13T09:44:19.317Z,20.68
2019-03-13T09:49:37.303Z,20.68
2019-03-13T09:54:53.080Z,20.48
2019-03-13T10:00:14.702Z,20.42
2019-03-13T10:05:38.991Z,20.32
2019-03-13T10:10:52.830Z,20.32
2019-03-13T10:16:19.182Z,20.26
2019-03-13T10:21:57.491Z,20.21
2019-03-13T10:27:19.387Z,20.17
2019-03-13T10:32:42.462Z,20.15
2019-03-13T10:38:13.878Z,20.11
2019-03-13T10:43:20.729Z,20.11
2019-03-13T10:48:40.822Z,20.01
2019-03-13T10:53:53.405Z,20.07
2019-03-13T10:59:15.453Z,20.06
2019-03-13T11:04:34.290Z,20.08
2019-03-13T11:09:47.360Z,20.08
2019-03-13T11:15:09.181Z,20.12
2019-03-13T11:20:32.648Z,20.13
2019-03-13T11:25:49.142Z,20.16
2019-03-13T11:31:16.321Z,20.16
2019-03-13T11:36:55.105Z,20.17
2019-03-13T11:42:09.829Z,20.13
2019-03-13T11:47:41.886Z,20.13
2019-03-13T11:52:48.201Z,20.13
2019-03-13T11:58:17.314Z,20.14
2019-03-13T12:03:34.430Z,20.14
2019-03-13T12:09:03.529Z,20.13
2019-03-13T12:14:26.456Z,20.13
2019-03-13T12:20:07.682Z,20.10
2019-03-13T12:25:19.727Z,20.07
2019-03-13T12:30:32.980Z,20.07
2019-03-13T12:35:54.883Z,20.06
2019-03-13T12:41:21.225Z,20.05
2019-03-13T12:46:43.111Z,20.05
2019-03-13T12:51:58.065Z,20.03
2019-03-13T12:57:20.736Z,20.03
2019-03-13T13:02:31.528Z,20.03
2019-03-13T13:08:13.006Z,20.03
2019-03-13T13:13:34.843Z,20.03
2019-03-13T13:18:54.298Z,20.03
2019-03-13T13:23:58.663Z,15.51
2019-03-13T13:29:02.736Z,15.51
2019-03-13T13:34:06.775Z,18.66
2019-03-13T13:39:10.998Z,18.66
2019-03-13T13:50:30.838Z,20.96
2019-03-13T13:55:35.189Z,20.96
2019-03-13T14:00:39.544Z,20.97
2019-03-13T14:05:45.637Z,21.02
2019-03-13T14:10:57.556Z,21.02
2019-03-13T14:16:01.764Z,20.99
2019-03-13T14:21:05.955Z,21.18
2019-03-13T14:26:10.466Z,21.54
2019-03-13T14:31:17.928Z,21.47
2019-03-13T14:36:22.755Z,21.57
2019-03-13T14:41:27.543Z,21.57
2019-03-13T14:46:58.859Z,21.74
2019-03-13T14:52:20.628Z,21.81
2019-03-13T14:57:21.036Z,21.85
2019-03-13T15:02:26.446Z,22.01
2019-03-13T15:07:30.841Z,21.94
2019-03-13T15:12:35.245Z,21.76
2019-03-13T15:17:39.409Z,21.98
2019-03-13T15:22:43.677Z,21.96
2019-03-13T15:27:47.788Z,22.06
2019-03-13T15:32:59.686Z,22.06
2019-03-13T15:38:03.837Z,22.12
2019-03-13T15:43:08.641Z,22.14
2019-03-13T15:48:12.707Z,22.13
2019-03-13T15:53:17.086Z,22.18
2019-03-13T15:58:21.340Z,22.05
2019-03-13T16:03:25.774Z,22.21
2019-03-13T16:08:30.812Z,22.21
2019-03-13T16:13:41.565Z,21.90
2019-03-13T16:40:49.525Z,22.05
2019-03-13T16:45:55.405Z,22.07
2019-03-13T16:51:00.286Z,22.11
2019-03-13T16:56:04.860Z,22.10
2019-03-13T17:01:55.092Z,22.16
2019-03-13T17:07:01.155Z,22.27
2019-03-13T17:12:05.451Z,22.27
2019-03-13T17:49:36.745Z,22.33
2019-03-13T18:05:33.672Z,22.50
2019-03-13T18:10:38.035Z,22.45
2019-03-13T18:21:30.868Z,22.33
2019-03-13T18:26:35.631Z,22.19
2019-03-13T18:31:55.287Z,22.26
2019-03-13T18:36:59.438Z,22.26
2019-03-13T18:42:03.714Z,22.54
2019-03-13T18:47:07.814Z,22.71
2019-03-13T18:52:12.074Z,22.63
2019-03-13T18:57:16.296Z,22.59
2019-03-13T19:02:20.543Z,22.54
2019-03-13T19:07:24.663Z,22.44
2019-03-13T19:12:29.005Z,22.42
2019-03-13T19:17:33.308Z,22.39
2019-03-13T19:22:38.250Z,22.35
2019-03-13T19:27:45.534Z,22.35
2019-03-13T19:32:50.036Z,22.65
2019-03-13T19:43:46.131Z,22.72
2019-03-13T19:59:32.968Z,22.43
2019-03-13T20:04:46.812Z,22.41
2019-03-13T20:09:43.628Z,22.31
2019-03-13T20:14:47.926Z,22.31
2019-03-13T20:19:52.446Z,22.28
2019-03-13T20:24:56.635Z,22.09
2019-03-13T20:30:00.767Z,21.99
2019-03-13T20:35:05.394Z,21.87
2019-03-13T20:40:11.694Z,21.76
2019-03-13T20:45:18.157Z,21.79
2019-03-13T20:50:35.289Z,21.76
2019-03-13T20:55:28.724Z,21.74
2019-03-13T21:00:34.787Z,21.73
2019-03-13T21:05:39.378Z,21.73
2019-03-13T21:10:43.721Z,21.73
2019-03-13T21:15:48.074Z,21.71
2019-03-13T21:20:52.391Z,21.66
2019-03-13T21:25:56.606Z,21.65
2019-03-13T21:31:03.867Z,21.62
2019-03-13T21:36:06.631Z,21.60
2019-03-13T21:41:10.743Z,21.61
2019-03-13T21:46:14.916Z,21.58
2019-03-13T21:51:18.944Z,21.58
2019-03-13T21:56:23.044Z,21.48
2019-03-13T22:01:27.085Z,21.56
2019-03-13T22:06:31.171Z,21.46
2019-03-13T22:11:35.277Z,21.51
2019-03-13T22:16:39.315Z,21.49
2019-03-13T22:21:43.668Z,21.52
2019-03-13T22:26:47.688Z,21.44
2019-03-13T22:31:51.908Z,21.44
2019-03-13T22:36:55.998Z,21.52
2019-03-13T22:42:00.127Z,21.49
2019-03-13T22:47:04.257Z,21.46
2019-03-13T22:52:08.359Z,21.46
2019-03-13T22:57:12.527Z,21.44
2019-03-13T23:02:18.146Z,21.45
2019-03-13T23:07:22.450Z,21.43
2019-03-13T23:12:26.739Z,21.43
2019-03-13T23:17:30.891Z,21.43
2019-03-13T23:22:35.166Z,21.42
2019-03-13T23:27:39.242Z,21.43
2019-03-13T23:32:43.291Z,21.41
2019-03-13T23:37:47.474Z,21.42
2019-03-13T23:42:51.640Z,21.39
2019-03-13T23:47:56.038Z,21.31
2019-03-13T23:53:00.338Z,21.39
2019-03-13T23:58:05.363Z,21.38
